Atlantic Tramp — V7SM5 — position and weather

sailwx.info

Track history (hours):
 
Tides and Currents Weather Stations Pressure Air Temp Water Temp Dewpoint Dewpoint Depression Visibility Wind Speed Wind Dir Waves Ship Positions

Atlantic Tramp

Last reported at 2016-Jul-01 22:33 UTC. Time now 2016-Jul-27 19:14 UTC.
Position N 49°46' W 003°31'.
Warning: this ship's position is 25 days out of date.

Length 180 m; draft 8.5 m.

Type: Cargo ship. MMSI: 538003682.

Date/timePositionNaut miles runAvg speedWind from/ knotsBaromVisibWave heightAir tempDewpointWater temp
2016-Jul-01 22:33N 49°46' W 003°31'1313.4
2016-Jul-01 21:33N 49°52' W 003°13'1313.2
2016-Jul-01 20:33N 49°59' W 002°55'10411.6
2016-Jul-01 11:33N 50°27' W 000°18'1413.6
2016-Jul-01 10:33N 50°31' E 000°03'1412.9
2016-Jul-01 09:30N 50°34' E 000°23'3511.2
2016-Jul-01 06:21N 50°54' E 001°10'911.5
2016-Jul-01 05:33N 51°00' E 001°20'1313.1
2016-Jul-01 04:33N 51°08' E 001°36'1313.3
2016-Jul-01 03:33N 51°18' E 001°51'1111.0
2016-Jul-01 02:33N 51°24' E 002°06'1211.5
2016-Jul-01 01:33N 51°22' E 002°24'1211.2
2016-Jul-01 00:29N 51°23' E 002°43'9 9.8
2016-Jun-30 23:33N 51°23' E 002°58'1111.2
2016-Jun-30 22:33N 51°25' E 003°16'1211.7
2016-Jun-30 21:33N 51°26' E 003°34'8 8.0
2016-Jun-30 20:33N 51°22' E 003°46'8 8.5
2016-Jun-30 19:33N 51°25' E 003°58'8 7.8
2016-Jun-30 18:33N 51°23' E 004°10'9 8.7
2016-Jun-30 17:33N 51°17' E 004°20'0 0.3
2016-Jun-30 16:33N 51°17' E 004°20'0 0.4
2016-Jun-30 15:33N 51°16' E 004°21'1 0.5
2016-Jun-30 14:33N 51°16' E 004°21'0 0.0
2016-Jun-30 13:33N 51°16' E 004°21'0 0.0
2016-Jun-30 12:33N 51°16' E 004°21'0 0.0
2016-Jun-30 11:33N 51°16' E 004°21'0 0.0
2016-Jun-30 10:33N 51°16' E 004°21'0 0.0
2016-Jun-30 09:33N 51°16' E 004°21'0 0.0
2016-Jun-30 08:33N 51°16' E 004°21'0 0.0
2016-Jun-30 07:33N 51°16' E 004°21'0 0.0
2016-Jun-30 06:33N 51°16' E 004°21'0 0.0
2016-Jun-30 05:33N 51°16' E 004°21'0 0.0
2016-Jun-30 04:33N 51°16' E 004°21'0 0.0
2016-Jun-30 03:33N 51°16' E 004°21'0 0.0
2016-Jun-30 02:33N 51°16' E 004°21'0 0.0
2016-Jun-30 01:33N 51°16' E 004°21'0 0.0
2016-Jun-30 00:33N 51°16' E 004°21'0 0.0
2016-Jun-29 23:33N 51°16' E 004°21'0 0.0
2016-Jun-29 22:33N 51°16' E 004°21'0 0.0
2016-Jun-29 21:33N 51°16' E 004°21'0 0.0
2016-Jun-29 20:33N 51°16' E 004°21'0 0.0
2016-Jun-29 19:33N 51°16' E 004°21'0 0.0
2016-Jun-29 18:33N 51°16' E 004°21'0 0.0
2016-Jun-29 17:33N 51°16' E 004°21'0 0.0
2016-Jun-29 16:33N 51°16' E 004°21'0 0.0
2016-Jun-29 15:33N 51°16' E 004°21'0 0.0
2016-Jun-29 14:33N 51°16' E 004°21'0 0.0
2016-Jun-29 13:33N 51°16' E 004°21'0 0.0
2016-Jun-29 12:33N 51°16' E 004°21'0 0.0
2016-Jun-29 11:27N 51°16' E 004°21'0 0.0
2016-Jun-29 10:33N 51°16' E 004°21'0 0.0
2016-Jun-29 09:33N 51°16' E 004°21'0 0.0
2016-Jun-29 08:33N 51°16' E 004°21'0 0.0
2016-Jun-29 07:33N 51°16' E 004°21'0 0.0
2016-Jun-29 06:33N 51°16' E 004°21'0 0.0
2016-Jun-29 05:33N 51°16' E 004°21'0 0.0
2016-Jun-29 04:33N 51°16' E 004°21'0 0.0
2016-Jun-29 03:33N 51°16' E 004°21'0 0.0
2016-Jun-29 02:33N 51°16' E 004°21'0 0.0
2016-Jun-29 01:33N 51°16' E 004°21'0 0.0
2016-Jun-29 00:30N 51°16' E 004°21'0 0.0
2016-Jun-28 23:33N 51°16' E 004°21'0 0.0
2016-Jun-28 22:33N 51°16' E 004°21'0 0.0
2016-Jun-28 21:30N 51°16' E 004°21'0 0.0
2016-Jun-28 20:33N 51°16' E 004°21'0 0.0
2016-Jun-28 19:33N 51°16' E 004°21'0 0.0
2016-Jun-28 18:33N 51°16' E 004°21'0 0.0
2016-Jun-28 17:33N 51°16' E 004°21'0 0.0
2016-Jun-28 16:33N 51°16' E 004°21'0 0.0
2016-Jun-28 15:33N 51°16' E 004°21'0 0.0
2016-Jun-28 14:33N 51°16' E 004°21'0 0.0
2016-Jun-28 13:33N 51°16' E 004°21'0 0.0
2016-Jun-28 12:33N 51°16' E 004°21'0 0.0
2016-Jun-28 11:33N 51°16' E 004°21'0 0.0
2016-Jun-28 10:33N 51°16' E 004°21'0 0.0
2016-Jun-28 09:33N 51°16' E 004°21'0 0.0
2016-Jun-28 08:33N 51°16' E 004°21'0 0.0
2016-Jun-28 07:33N 51°16' E 004°21'0 0.0
2016-Jun-28 06:33N 51°16' E 004°21'0 0.0
2016-Jun-28 04:33N 51°16' E 004°21'0 0.0
2016-Jun-28 03:33N 51°16' E 004°21'0 0.0
2016-Jun-28 02:33N 51°16' E 004°21'0 0.0
2016-Jun-28 01:33N 51°16' E 004°21'0 0.0
2016-Jun-28 00:33N 51°16' E 004°21'0 0.0
2016-Jun-27 23:33N 51°16' E 004°21'0 0.0
2016-Jun-27 22:33N 51°16' E 004°21'0 0.0
2016-Jun-27 21:33N 51°16' E 004°21'0 0.0
2016-Jun-27 20:33N 51°16' E 004°21'0 0.0
2016-Jun-27 19:30N 51°16' E 004°21'0 0.0
2016-Jun-27 18:33N 51°16' E 004°21'0 0.0
2016-Jun-27 17:33N 51°16' E 004°21'0 0.0
2016-Jun-27 16:33N 51°16' E 004°21'0 0.0
2016-Jun-27 15:33N 51°16' E 004°21'0 0.0
2016-Jun-27 14:33N 51°16' E 004°21'0 0.0
2016-Jun-27 13:33N 51°16' E 004°21'0 0.0
2016-Jun-27 12:33N 51°16' E 004°21'0 0.0
2016-Jun-27 11:33N 51°16' E 004°21'0 0.0
2016-Jun-27 10:33N 51°16' E 004°21'0 0.0
2016-Jun-27 09:33N 51°16' E 004°21'0 0.0
2016-Jun-27 08:33N 51°16' E 004°21'0 0.0
2016-Jun-27 07:33N 51°16' E 004°21'0 0.0
2016-Jun-27 06:33N 51°16' E 004°21'0 0.0
2016-Jun-27 05:33N 51°16' E 004°21'0 0.0
2016-Jun-27 04:33N 51°16' E 004°21'0 0.0
2016-Jun-27 03:33N 51°16' E 004°21'0 0.0
2016-Jun-27 02:33N 51°16' E 004°21'0 0.0
2016-Jun-27 01:33N 51°16' E 004°21'0 0.0
2016-Jun-27 00:33N 51°16' E 004°21'0 0.0
2016-Jun-26 23:30N 51°16' E 004°21'0 0.0
2016-Jun-26 22:33N 51°16' E 004°21'0 0.0
2016-Jun-26 21:33N 51°16' E 004°21'0 0.0
2016-Jun-26 20:33N 51°16' E 004°21'0 0.0
2016-Jun-26 19:33N 51°16' E 004°21'0 0.0
2016-Jun-26 18:33N 51°16' E 004°21'0 0.0
2016-Jun-26 17:33N 51°16' E 004°21'0 0.0
2016-Jun-26 16:33N 51°16' E 004°21'0 0.0
2016-Jun-26 15:33N 51°16' E 004°21'0 0.0
2016-Jun-26 14:30N 51°16' E 004°21'0 0.0
2016-Jun-26 13:33N 51°16' E 004°21'0 0.0
2016-Jun-26 12:33N 51°16' E 004°21'0 0.0
2016-Jun-26 11:33N 51°16' E 004°21'0 0.0
2016-Jun-26 10:33N 51°16' E 004°21'0 0.0
2016-Jun-26 09:33N 51°16' E 004°21'0 0.0
2016-Jun-26 08:33N 51°16' E 004°21'0 0.0
2016-Jun-26 07:33N 51°16' E 004°21'0 0.0
2016-Jun-26 06:33N 51°16' E 004°21'0 0.0
2016-Jun-26 05:33N 51°16' E 004°21'0 0.0
2016-Jun-26 04:33N 51°16' E 004°21'0 0.0
2016-Jun-26 03:33N 51°16' E 004°21'0 0.0
2016-Jun-26 02:33N 51°16' E 004°21'0 0.0
2016-Jun-26 01:33N 51°16' E 004°21'0 0.0
2016-Jun-26 00:30N 51°16' E 004°21'0 0.0
2016-Jun-25 23:33N 51°16' E 004°21'0 0.0
2016-Jun-25 22:33N 51°16' E 004°21'0 0.0
2016-Jun-25 21:33N 51°16' E 004°21'0 0.0
2016-Jun-25 20:33N 51°16' E 004°21'0 0.0
2016-Jun-25 19:33N 51°16' E 004°21'0 0.0
2016-Jun-25 18:33N 51°16' E 004°21'0 0.0
2016-Jun-25 17:33N 51°16' E 004°21'0 0.0
2016-Jun-25 16:33N 51°16' E 004°21'0 0.0
2016-Jun-25 15:33N 51°16' E 004°21'0 0.0
2016-Jun-25 14:33N 51°16' E 004°21'0 0.0
2016-Jun-25 13:33N 51°16' E 004°21'0 0.0
2016-Jun-25 12:33N 51°16' E 004°21'0 0.0
2016-Jun-25 11:33N 51°16' E 004°21'0 0.0
2016-Jun-25 10:33N 51°16' E 004°21'0 0.0
2016-Jun-25 09:33N 51°16' E 004°21'0 0.0
2016-Jun-25 08:33N 51°16' E 004°21'0 0.0
2016-Jun-25 07:33N 51°16' E 004°21'0 0.0
2016-Jun-25 06:33N 51°16' E 004°21'0 0.0
2016-Jun-25 05:33N 51°16' E 004°21'0 0.0
2016-Jun-25 04:33N 51°16' E 004°21'0 0.0
2016-Jun-25 03:33N 51°16' E 004°21'0 0.0
2016-Jun-25 02:33N 51°16' E 004°21'0 0.0
2016-Jun-25 01:33N 51°16' E 004°21'0 0.0
2016-Jun-25 00:33N 51°16' E 004°21'0 0.0
2016-Jun-24 23:30N 51°16' E 004°21'0 0.0
2016-Jun-24 22:33N 51°16' E 004°21'0 0.0
2016-Jun-24 21:33N 51°16' E 004°21'0 0.0
2016-Jun-24 20:33N 51°16' E 004°21'0 0.0
2016-Jun-24 19:33N 51°16' E 004°21'0 0.0
2016-Jun-24 18:33N 51°16' E 004°21'0 0.0
2016-Jun-24 17:33N 51°16' E 004°21'0 0.0
2016-Jun-24 16:33N 51°16' E 004°21'0 0.0
2016-Jun-24 15:33N 51°16' E 004°21'0 0.0
2016-Jun-24 14:30N 51°16' E 004°21'0 0.0
2016-Jun-24 13:30N 51°16' E 004°21'0 0.0
2016-Jun-24 12:33N 51°16' E 004°21'0 0.0
2016-Jun-24 11:33N 51°16' E 004°21'0 0.0
2016-Jun-24 10:33N 51°16' E 004°21'0 0.0
2016-Jun-24 09:30N 51°16' E 004°21'0 0.0
2016-Jun-24 08:33N 51°16' E 004°21'0 0.0
2016-Jun-24 07:33N 51°16' E 004°21'0 0.0
2016-Jun-24 04:33N 51°16' E 004°21'0 0.0
2016-Jun-24 03:33N 51°16' E 004°21'0 0.0
2016-Jun-24 02:33N 51°16' E 004°21'0 0.0
2016-Jun-24 01:33N 51°16' E 004°21'0 0.0
2016-Jun-24 00:33N 51°16' E 004°21'0 0.0
2016-Jun-23 23:30N 51°16' E 004°21'0 0.0
2016-Jun-23 22:33N 51°16' E 004°21'0 0.0
2016-Jun-23 21:33N 51°16' E 004°21'0 0.0
2016-Jun-23 20:33N 51°16' E 004°21'0 0.0
2016-Jun-23 19:33N 51°16' E 004°21'0 0.0
2016-Jun-23 18:33N 51°16' E 004°21'0 0.0
2016-Jun-23 17:33N 51°16' E 004°21'0 0.0
2016-Jun-23 16:33N 51°16' E 004°21'0 0.0
2016-Jun-23 15:33N 51°16' E 004°21'0 0.0
2016-Jun-23 14:33N 51°16' E 004°21'0 0.0
2016-Jun-23 13:33N 51°16' E 004°21'0 0.0
2016-Jun-23 12:33N 51°16' E 004°21'0 0.0
2016-Jun-23 11:33N 51°16' E 004°21'0 0.0
2016-Jun-23 10:33N 51°16' E 004°21'0 0.0
2016-Jun-23 09:33N 51°16' E 004°21'0 0.0
2016-Jun-23 08:33N 51°16' E 004°21'0 0.0
2016-Jun-23 07:33N 51°16' E 004°21'0 0.0
2016-Jun-23 05:33N 51°16' E 004°21'0 0.0
2016-Jun-23 04:33N 51°16' E 004°21'0 0.0
2016-Jun-23 03:33N 51°16' E 004°21'0 0.0
2016-Jun-23 02:33N 51°16' E 004°21'0 0.0
2016-Jun-23 01:33N 51°16' E 004°21'0 0.0
2016-Jun-23 00:33N 51°16' E 004°21'0 0.0
2016-Jun-22 23:33N 51°16' E 004°21'0 0.0
2016-Jun-22 22:33N 51°16' E 004°21'0 0.0
2016-Jun-22 21:33N 51°16' E 004°21'0 0.0
2016-Jun-22 20:33N 51°16' E 004°21'0 0.0
2016-Jun-22 19:33N 51°16' E 004°21'0 0.0
2016-Jun-22 18:33N 51°16' E 004°21'0 0.0
2016-Jun-22 17:33N 51°16' E 004°21'0 0.0
2016-Jun-22 16:30N 51°16' E 004°21'0 0.0
2016-Jun-22 15:30N 51°16' E 004°21'0 0.0
2016-Jun-22 14:33N 51°16' E 004°21'0 0.0
2016-Jun-22 13:33N 51°16' E 004°21'1 0.9
2016-Jun-22 12:33N 51°17' E 004°20'1 1.1
2016-Jun-22 11:33N 51°17' E 004°19'8 7.9
2016-Jun-22 10:34N 51°24' E 004°12'7 6.5
2016-Jun-22 09:34N 51°25' E 004°01'7 7.1
2016-Jun-22 08:33N 51°21' E 003°53'7 7.3
2016-Jun-22 07:34N 51°25' E 003°43'8 7.8
2016-Jun-22 06:33N 51°25' E 003°30'1211.6
2016-Jun-22 05:33N 51°24' E 003°11'1212.0
2016-Jun-22 04:34N 51°22' E 002°53'1010.1
2016-Jun-22 03:33N 51°24' E 002°36'1 0.9
2016-Jun-22 02:32N 51°24' E 002°36'0 0.0
2016-Jun-22 01:33N 51°24' E 002°36'0 0.0
2016-Jun-22 00:33N 51°24' E 002°36'0 0.0
2016-Jun-21 23:32N 51°24' E 002°36'  
Track history (hours):
 
Tides and Currents Weather Stations Pressure Air Temp Water Temp Dewpoint Dewpoint Depression Visibility Wind Speed Wind Dir Waves Ship Positions

Atlantic Tramp

Last reported at 2016-Jul-01 22:33 UTC. Time now 2016-Jul-27 19:14 UTC.
Position N 49°46' W 003°31'.
Warning: this ship's position is 25 days out of date.

Length 180 m; draft 8.5 m.

Type: Cargo ship. MMSI: 538003682.

Date/timePositionNaut miles runAvg speedWind from/ knotsBaromVisibWave heightAir tempDewpointWater temp
2016-Jul-01 22:33N 49°46' W 003°31'1313.4
2016-Jul-01 21:33N 49°52' W 003°13'1313.2
2016-Jul-01 20:33N 49°59' W 002°55'10411.6
2016-Jul-01 11:33N 50°27' W 000°18'1413.6
2016-Jul-01 10:33N 50°31' E 000°03'1412.9
2016-Jul-01 09:30N 50°34' E 000°23'3511.2
2016-Jul-01 06:21N 50°54' E 001°10'911.5
2016-Jul-01 05:33N 51°00' E 001°20'1313.1
2016-Jul-01 04:33N 51°08' E 001°36'1313.3
2016-Jul-01 03:33N 51°18' E 001°51'1111.0
2016-Jul-01 02:33N 51°24' E 002°06'1211.5
2016-Jul-01 01:33N 51°22' E 002°24'1211.2
2016-Jul-01 00:29N 51°23' E 002°43'9 9.8
2016-Jun-30 23:33N 51°23' E 002°58'1111.2
2016-Jun-30 22:33N 51°25' E 003°16'1211.7
2016-Jun-30 21:33N 51°26' E 003°34'8 8.0
2016-Jun-30 20:33N 51°22' E 003°46'8 8.5
2016-Jun-30 19:33N 51°25' E 003°58'8 7.8
2016-Jun-30 18:33N 51°23' E 004°10'9 8.7
2016-Jun-30 17:33N 51°17' E 004°20'0 0.3
2016-Jun-30 16:33N 51°17' E 004°20'0 0.4
2016-Jun-30 15:33N 51°16' E 004°21'1 0.5
2016-Jun-30 14:33N 51°16' E 004°21'0 0.0
2016-Jun-30 13:33N 51°16' E 004°21'0 0.0
2016-Jun-30 12:33N 51°16' E 004°21'0 0.0
2016-Jun-30 11:33N 51°16' E 004°21'0 0.0
2016-Jun-30 10:33N 51°16' E 004°21'0 0.0
2016-Jun-30 09:33N 51°16' E 004°21'0 0.0
2016-Jun-30 08:33N 51°16' E 004°21'0 0.0
2016-Jun-30 07:33N 51°16' E 004°21'0 0.0
2016-Jun-30 06:33N 51°16' E 004°21'0 0.0
2016-Jun-30 05:33N 51°16' E 004°21'0 0.0
2016-Jun-30 04:33N 51°16' E 004°21'0 0.0
2016-Jun-30 03:33N 51°16' E 004°21'0 0.0
2016-Jun-30 02:33N 51°16' E 004°21'0 0.0
2016-Jun-30 01:33N 51°16' E 004°21'0 0.0
2016-Jun-30 00:33N 51°16' E 004°21'0 0.0
2016-Jun-29 23:33N 51°16' E 004°21'0 0.0
2016-Jun-29 22:33N 51°16' E 004°21'0 0.0
2016-Jun-29 21:33N 51°16' E 004°21'0 0.0
2016-Jun-29 20:33N 51°16' E 004°21'0 0.0
2016-Jun-29 19:33N 51°16' E 004°21'0 0.0
2016-Jun-29 18:33N 51°16' E 004°21'0 0.0
2016-Jun-29 17:33N 51°16' E 004°21'0 0.0
2016-Jun-29 16:33N 51°16' E 004°21'0 0.0
2016-Jun-29 15:33N 51°16' E 004°21'0 0.0
2016-Jun-29 14:33N 51°16' E 004°21'0 0.0
2016-Jun-29 13:33N 51°16' E 004°21'0 0.0
2016-Jun-29 12:33N 51°16' E 004°21'0 0.0
2016-Jun-29 11:27N 51°16' E 004°21'0 0.0
2016-Jun-29 10:33N 51°16' E 004°21'0 0.0
2016-Jun-29 09:33N 51°16' E 004°21'0 0.0
2016-Jun-29 08:33N 51°16' E 004°21'0 0.0
2016-Jun-29 07:33N 51°16' E 004°21'0 0.0
2016-Jun-29 06:33N 51°16' E 004°21'0 0.0
2016-Jun-29 05:33N 51°16' E 004°21'0 0.0
2016-Jun-29 04:33N 51°16' E 004°21'0 0.0
2016-Jun-29 03:33N 51°16' E 004°21'0 0.0
2016-Jun-29 02:33N 51°16' E 004°21'0 0.0
2016-Jun-29 01:33N 51°16' E 004°21'0 0.0
2016-Jun-29 00:30N 51°16' E 004°21'0 0.0
2016-Jun-28 23:33N 51°16' E 004°21'0 0.0
2016-Jun-28 22:33N 51°16' E 004°21'0 0.0
2016-Jun-28 21:30N 51°16' E 004°21'0 0.0
2016-Jun-28 20:33N 51°16' E 004°21'0 0.0
2016-Jun-28 19:33N 51°16' E 004°21'0 0.0
2016-Jun-28 18:33N 51°16' E 004°21'0 0.0
2016-Jun-28 17:33N 51°16' E 004°21'0 0.0
2016-Jun-28 16:33N 51°16' E 004°21'0 0.0
2016-Jun-28 15:33N 51°16' E 004°21'0 0.0
2016-Jun-28 14:33N 51°16' E 004°21'0 0.0
2016-Jun-28 13:33N 51°16' E 004°21'0 0.0
2016-Jun-28 12:33N 51°16' E 004°21'0 0.0
2016-Jun-28 11:33N 51°16' E 004°21'0 0.0
2016-Jun-28 10:33N 51°16' E 004°21'0 0.0
2016-Jun-28 09:33N 51°16' E 004°21'0 0.0
2016-Jun-28 08:33N 51°16' E 004°21'0 0.0
2016-Jun-28 07:33N 51°16' E 004°21'0 0.0
2016-Jun-28 06:33N 51°16' E 004°21'0 0.0
2016-Jun-28 04:33N 51°16' E 004°21'0 0.0
2016-Jun-28 03:33N 51°16' E 004°21'0 0.0
2016-Jun-28 02:33N 51°16' E 004°21'0 0.0
2016-Jun-28 01:33N 51°16' E 004°21'0 0.0
2016-Jun-28 00:33N 51°16' E 004°21'0 0.0
2016-Jun-27 23:33N 51°16' E 004°21'0 0.0
2016-Jun-27 22:33N 51°16' E 004°21'0 0.0
2016-Jun-27 21:33N 51°16' E 004°21'0 0.0
2016-Jun-27 20:33N 51°16' E 004°21'0 0.0
2016-Jun-27 19:30N 51°16' E 004°21'0 0.0
2016-Jun-27 18:33N 51°16' E 004°21'0 0.0
2016-Jun-27 17:33N 51°16' E 004°21'0 0.0
2016-Jun-27 16:33N 51°16' E 004°21'0 0.0
2016-Jun-27 15:33N 51°16' E 004°21'0 0.0
2016-Jun-27 14:33N 51°16' E 004°21'0 0.0
2016-Jun-27 13:33N 51°16' E 004°21'0 0.0
2016-Jun-27 12:33N 51°16' E 004°21'0 0.0
2016-Jun-27 11:33N 51°16' E 004°21'0 0.0
2016-Jun-27 10:33N 51°16' E 004°21'0 0.0
2016-Jun-27 09:33N 51°16' E 004°21'0 0.0
2016-Jun-27 08:33N 51°16' E 004°21'0 0.0
2016-Jun-27 07:33N 51°16' E 004°21'0 0.0
2016-Jun-27 06:33N 51°16' E 004°21'0 0.0
2016-Jun-27 05:33N 51°16' E 004°21'0 0.0
2016-Jun-27 04:33N 51°16' E 004°21'0 0.0
2016-Jun-27 03:33N 51°16' E 004°21'0 0.0
2016-Jun-27 02:33N 51°16' E 004°21'0 0.0
2016-Jun-27 01:33N 51°16' E 004°21'0 0.0
2016-Jun-27 00:33N 51°16' E 004°21'0 0.0
2016-Jun-26 23:30N 51°16' E 004°21'0 0.0
2016-Jun-26 22:33N 51°16' E 004°21'0 0.0
2016-Jun-26 21:33N 51°16' E 004°21'0 0.0
2016-Jun-26 20:33N 51°16' E 004°21'0 0.0
2016-Jun-26 19:33N 51°16' E 004°21'0 0.0
2016-Jun-26 18:33N 51°16' E 004°21'0 0.0
2016-Jun-26 17:33N 51°16' E 004°21'0 0.0
2016-Jun-26 16:33N 51°16' E 004°21'0 0.0
2016-Jun-26 15:33N 51°16' E 004°21'0 0.0
2016-Jun-26 14:30N 51°16' E 004°21'0 0.0
2016-Jun-26 13:33N 51°16' E 004°21'0 0.0
2016-Jun-26 12:33N 51°16' E 004°21'0 0.0
2016-Jun-26 11:33N 51°16' E 004°21'0 0.0
2016-Jun-26 10:33N 51°16' E 004°21'0 0.0
2016-Jun-26 09:33N 51°16' E 004°21'0 0.0
2016-Jun-26 08:33N 51°16' E 004°21'0 0.0
2016-Jun-26 07:33N 51°16' E 004°21'0 0.0
2016-Jun-26 06:33N 51°16' E 004°21'0 0.0
2016-Jun-26 05:33N 51°16' E 004°21'0 0.0
2016-Jun-26 04:33N 51°16' E 004°21'0 0.0
2016-Jun-26 03:33N 51°16' E 004°21'0 0.0
2016-Jun-26 02:33N 51°16' E 004°21'0 0.0
2016-Jun-26 01:33N 51°16' E 004°21'0 0.0
2016-Jun-26 00:30N 51°16' E 004°21'0 0.0
2016-Jun-25 23:33N 51°16' E 004°21'0 0.0
2016-Jun-25 22:33N 51°16' E 004°21'0 0.0
2016-Jun-25 21:33N 51°16' E 004°21'0 0.0
2016-Jun-25 20:33N 51°16' E 004°21'0 0.0
2016-Jun-25 19:33N 51°16' E 004°21'0 0.0
2016-Jun-25 18:33N 51°16' E 004°21'0 0.0
2016-Jun-25 17:33N 51°16' E 004°21'0 0.0
2016-Jun-25 16:33N 51°16' E 004°21'0 0.0
2016-Jun-25 15:33N 51°16' E 004°21'0 0.0
2016-Jun-25 14:33N 51°16' E 004°21'0 0.0
2016-Jun-25 13:33N 51°16' E 004°21'0 0.0
2016-Jun-25 12:33N 51°16' E 004°21'0 0.0
2016-Jun-25 11:33N 51°16' E 004°21'0 0.0
2016-Jun-25 10:33N 51°16' E 004°21'0 0.0
2016-Jun-25 09:33N 51°16' E 004°21'0 0.0
2016-Jun-25 08:33N 51°16' E 004°21'0 0.0
2016-Jun-25 07:33N 51°16' E 004°21'0 0.0
2016-Jun-25 06:33N 51°16' E 004°21'0 0.0
2016-Jun-25 05:33N 51°16' E 004°21'0 0.0
2016-Jun-25 04:33N 51°16' E 004°21'0 0.0
2016-Jun-25 03:33N 51°16' E 004°21'0 0.0
2016-Jun-25 02:33N 51°16' E 004°21'0 0.0
2016-Jun-25 01:33N 51°16' E 004°21'0 0.0
2016-Jun-25 00:33N 51°16' E 004°21'0 0.0
2016-Jun-24 23:30N 51°16' E 004°21'0 0.0
2016-Jun-24 22:33N 51°16' E 004°21'0 0.0
2016-Jun-24 21:33N 51°16' E 004°21'0 0.0
2016-Jun-24 20:33N 51°16' E 004°21'0 0.0
2016-Jun-24 19:33N 51°16' E 004°21'0 0.0
2016-Jun-24 18:33N 51°16' E 004°21'0 0.0
2016-Jun-24 17:33N 51°16' E 004°21'0 0.0
2016-Jun-24 16:33N 51°16' E 004°21'0 0.0
2016-Jun-24 15:33N 51°16' E 004°21'0 0.0
2016-Jun-24 14:30N 51°16' E 004°21'0 0.0
2016-Jun-24 13:30N 51°16' E 004°21'0 0.0
2016-Jun-24 12:33N 51°16' E 004°21'0 0.0
2016-Jun-24 11:33N 51°16' E 004°21'0 0.0
2016-Jun-24 10:33N 51°16' E 004°21'0 0.0
2016-Jun-24 09:30N 51°16' E 004°21'0 0.0
2016-Jun-24 08:33N 51°16' E 004°21'0 0.0
2016-Jun-24 07:33N 51°16' E 004°21'0 0.0
2016-Jun-24 04:33N 51°16' E 004°21'0 0.0
2016-Jun-24 03:33N 51°16' E 004°21'0 0.0
2016-Jun-24 02:33N 51°16' E 004°21'0 0.0
2016-Jun-24 01:33N 51°16' E 004°21'0 0.0
2016-Jun-24 00:33N 51°16' E 004°21'0 0.0
2016-Jun-23 23:30N 51°16' E 004°21'0 0.0
2016-Jun-23 22:33N 51°16' E 004°21'0 0.0
2016-Jun-23 21:33N 51°16' E 004°21'0 0.0
2016-Jun-23 20:33N 51°16' E 004°21'0 0.0
2016-Jun-23 19:33N 51°16' E 004°21'0 0.0
2016-Jun-23 18:33N 51°16' E 004°21'0 0.0
2016-Jun-23 17:33N 51°16' E 004°21'0 0.0
2016-Jun-23 16:33N 51°16' E 004°21'0 0.0
2016-Jun-23 15:33N 51°16' E 004°21'0 0.0
2016-Jun-23 14:33N 51°16' E 004°21'0 0.0
2016-Jun-23 13:33N 51°16' E 004°21'0 0.0
2016-Jun-23 12:33N 51°16' E 004°21'0 0.0
2016-Jun-23 11:33N 51°16' E 004°21'0 0.0
2016-Jun-23 10:33N 51°16' E 004°21'0 0.0
2016-Jun-23 09:33N 51°16' E 004°21'0 0.0
2016-Jun-23 08:33N 51°16' E 004°21'0 0.0
2016-Jun-23 07:33N 51°16' E 004°21'0 0.0
2016-Jun-23 05:33N 51°16' E 004°21'0 0.0
2016-Jun-23 04:33N 51°16' E 004°21'0 0.0
2016-Jun-23 03:33N 51°16' E 004°21'0 0.0
2016-Jun-23 02:33N 51°16' E 004°21'0 0.0
2016-Jun-23 01:33N 51°16' E 004°21'0 0.0
2016-Jun-23 00:33N 51°16' E 004°21'0 0.0
2016-Jun-22 23:33N 51°16' E 004°21'0 0.0
2016-Jun-22 22:33N 51°16' E 004°21'0 0.0
2016-Jun-22 21:33N 51°16' E 004°21'0 0.0
2016-Jun-22 20:33N 51°16' E 004°21'0 0.0
2016-Jun-22 19:33N 51°16' E 004°21'0 0.0
2016-Jun-22 18:33N 51°16' E 004°21'0 0.0
2016-Jun-22 17:33N 51°16' E 004°21'0 0.0
2016-Jun-22 16:30N 51°16' E 004°21'0 0.0
2016-Jun-22 15:30N 51°16' E 004°21'0 0.0
2016-Jun-22 14:33N 51°16' E 004°21'0 0.0
2016-Jun-22 13:33N 51°16' E 004°21'1 0.9
2016-Jun-22 12:33N 51°17' E 004°20'1 1.1
2016-Jun-22 11:33N 51°17' E 004°19'8 7.9
2016-Jun-22 10:34N 51°24' E 004°12'7 6.5
2016-Jun-22 09:34N 51°25' E 004°01'7 7.1
2016-Jun-22 08:33N 51°21' E 003°53'7 7.3
2016-Jun-22 07:34N 51°25' E 003°43'8 7.8
2016-Jun-22 06:33N 51°25' E 003°30'1211.6
2016-Jun-22 05:33N 51°24' E 003°11'1212.0
2016-Jun-22 04:34N 51°22' E 002°53'1010.1
2016-Jun-22 03:33N 51°24' E 002°36'1 0.9
2016-Jun-22 02:32N 51°24' E 002°36'0 0.0
2016-Jun-22 01:33N 51°24' E 002°36'0 0.0
2016-Jun-22 00:33N 51°24' E 002°36'0 0.0
2016-Jun-21 23:32N 51°24' E 002°36'  

Dump ship's entire track history